This is the latest recevied weather packets stored in our database for station/object KQ4DLB-13. If no packets are shown the sender has not sent any weather packets the latest 10 day(s).
| Time | Temp. | Humidity | Pressure | Rain* | Wind** | Luminosity | Snow |
|---|---|---|---|---|---|---|---|
| 1776982802 | 26.67° C | 43% | 988.3 hPa | 0 mm | - | 341 W/m² | - |
| 1776982502 | 26.67° C | 42% | 988.3 hPa | 0 mm | - | 373 W/m² | - |
| 1776982202 | 26.11° C | 42% | 988.4 hPa | 0 mm | - | 400 W/m² | - |
| 1776981902 | 26.11° C | 44% | 988.3 hPa | 0 mm | - | 272 W/m² | - |
| 1776981602 | 26.67° C | 43% | 988.2 hPa | 0 mm | - | 104 W/m² | - |
| 1776981302 | 27.22° C | 41% | 988.3 hPa | 0 mm | - | 154 W/m² | - |
| 1776981002 | 27.22° C | 41% | 988.5 hPa | 0 mm | - | 476 W/m² | - |
| 1776980702 | 27.22° C | 40% | 988.5 hPa | 0 mm | - | 508 W/m² | - |
| 1776980402 | 27.22° C | 40% | 988.5 hPa | 0 mm | - | 537 W/m² | - |
| 1776980102 | 26.67° C | 40% | 988.5 hPa | 0 mm | - | 427 W/m² | - |
| 1776979803 | 27.22° C | 40% | 988.4 hPa | 0 mm | - | 287 W/m² | - |
| 1776979503 | 27.22° C | 40% | 988.5 hPa | 0 mm | - | 213 W/m² | - |
| 1776979203 | 27.22° C | 40% | 988.6 hPa | 0 mm | - | 476 W/m² | - |
| 1776978902 | 26.67° C | 40% | 988.6 hPa | 0 mm | - | 343 W/m² | - |
| 1776978602 | 26.67° C | 40% | 988.7 hPa | 0 mm | - | 577 W/m² | - |
| 1776978302 | 26.67° C | 39% | 988.6 hPa | 0 mm | - | 185 W/m² | - |
| 1776978002 | 27.22° C | 39% | 988.7 hPa | 0 mm | - | 196 W/m² | - |
| 1776977702 | 27.22° C | 39% | 988.8 hPa | 0 mm | - | 555 W/m² | - |
| 1776977402 | 27.78° C | 38% | 988.9 hPa | 0 mm | - | 436 W/m² | - |
| 1776977102 | 27.78° C | 38% | 989 hPa | 0 mm | - | 716 W/m² | - |
| 1776976803 | 27.22° C | 38% | 989 hPa | 0 mm | - | 612 W/m² | - |
| 1776976502 | 27.78° C | 37% | 989.1 hPa | 0 mm | - | 302 W/m² | - |
| 1776976202 | 27.78° C | 37% | 989.3 hPa | 0 mm | - | 736 W/m² | - |
| 1776975902 | 27.78° C | 38% | 989.3 hPa | 0 mm | - | 749 W/m² | - |
| 1776975602 | 27.78° C | 38% | 989.4 hPa | 0 mm | - | 615 W/m² | - |
* Rain latest hour (hover to see other rain measurements)
** Current wind speed in m/s (hover to see current wind gust speed)